Time;durP1;ratioP1;P1;durP2;ratioP2;P2;SDS_P1;SDS_P2;PMS_P1;PMS_P2;Temp;Humidity;BMP_temperature;BMP_pressure;BME280_temperature;BME280_humidity;BME280_pressure;Samples;Min_cycle;Max_cycle;Signal;HPM_P1;HPM_P2
2022/04/03 00:00:27;;;;;;;3.60;1.90;;;-1.50;99.90;;;;;;5058841;28;20047;-73
2022/04/03 00:02:53;;;;;;;4.03;1.85;;;-1.50;99.90;;;;;;5063165;28;20547;-72
2022/04/03 00:05:19;;;;;;;1.98;1.45;;;-1.50;99.90;;;;;;5043697;28;20051;-72
2022/04/03 00:07:46;;;;;;;2.30;1.42;;;-1.50;99.90;;;;;;5032003;28;20048;-73
2022/04/03 00:10:14;;;;;;;3.92;1.58;;;-1.60;99.90;;;;;;5046323;28;20040;-73
2022/04/03 00:12:41;;;;;;;2.95;1.60;;;-1.50;99.90;;;;;;5061550;28;20118;-72
2022/04/03 00:15:07;;;;;;;3.92;1.50;;;-1.50;99.90;;;;;;5060210;28;20106;-72
2022/04/03 00:17:33;;;;;;;3.28;1.60;;;-1.60;99.90;;;;;;5041896;28;20049;-73
2022/04/03 00:19:59;;;;;;;4.00;1.42;;;-1.60;99.90;;;;;;5062297;28;20185;-73
2022/04/03 00:22:25;;;;;;;4.22;1.60;;;-1.70;99.90;;;;;;5078860;28;20052;-73
2022/04/03 00:24:51;;;;;;;2.20;1.35;;;-1.70;99.90;;;;;;5079334;28;20044;-73
2022/04/03 00:27:17;;;;;;;4.22;1.58;;;-1.70;99.90;;;;;;5045527;28;20032;-73
2022/04/03 00:29:43;;;;;;;4.00;1.80;;;-1.70;99.90;;;;;;5041900;28;20090;-73
2022/04/03 00:32:09;;;;;;;2.90;1.65;;;-1.70;99.90;;;;;;5062625;28;20052;-73
2022/04/03 00:34:35;;;;;;;3.83;1.77;;;-1.70;99.90;;;;;;5062165;28;20044;-73
2022/04/03 00:37:01;;;;;;;2.67;1.60;;;-1.70;99.90;;;;;;5036096;28;20412;-73
2022/04/03 00:39:27;;;;;;;3.00;1.60;;;-1.80;99.90;;;;;;5025600;28;20045;-73
2022/04/03 00:41:53;;;;;;;3.08;1.40;;;-1.40;99.90;;;;;;5052325;28;20055;-73
2022/04/03 00:44:19;;;;;;;1.70;1.10;;;-1.90;99.90;;;;;;5044762;28;20049;-73
2022/04/03 00:46:46;;;;;;;4.72;1.63;;;-1.90;99.90;;;;;;5026284;28;20048;-73
2022/04/03 00:49:12;;;;;;;2.90;1.40;;;-1.70;99.90;;;;;;5068214;28;20056;-73
2022/04/03 00:51:38;;;;;;;3.63;1.50;;;-2.20;99.90;;;;;;5047153;28;20130;-73
2022/04/03 00:54:06;;;;;;;2.53;1.33;;;-2.10;99.90;;;;;;5075740;28;20396;-74
2022/04/03 00:56:32;;;;;;;2.97;1.73;;;-2.10;99.90;;;;;;5061664;28;20048;-73
2022/04/03 00:58:58;;;;;;;3.08;1.52;;;-2.10;99.90;;;;;;5048913;28;20482;-73
2022/04/03 01:01:24;;;;;;;3.58;1.33;;;-2.20;99.90;;;;;;5035065;28;20071;-73
2022/04/03 01:03:50;;;;;;;4.68;1.30;;;-2.30;99.90;;;;;;5058865;28;20456;-73
2022/04/03 01:06:16;;;;;;;2.40;1.40;;;-2.40;99.90;;;;;;5034900;28;20119;-73
2022/04/03 01:08:43;;;;;;;3.40;1.65;;;-2.30;99.90;;;;;;5056005;28;20435;-73
2022/04/03 01:11:13;;;;;;;3.10;1.60;;;-2.60;99.90;;;;;;5041652;28;20563;-73
2022/04/03 01:13:46;;;;;;;3.72;2.00;;;-2.30;99.90;;;;;;5058048;28;20531;-73
2022/04/03 01:16:12;;;;;;;4.20;1.98;;;-2.60;99.90;;;;;;5026217;28;20099;-73
2022/04/03 01:18:37;;;;;;;3.38;1.80;;;-2.50;99.90;;;;;;5024229;28;20471;-73
2022/04/03 01:21:03;;;;;;;4.53;2.10;;;-2.50;99.90;;;;;;5058248;28;20080;-74
2022/04/03 01:23:30;;;;;;;5.43;2.00;;;-2.50;99.90;;;;;;5039691;28;20091;-74
2022/04/03 01:25:56;;;;;;;3.25;2.00;;;-1.70;99.90;;;;;;5053307;28;20047;-74
2022/04/03 01:28:23;;;;;;;3.55;1.95;;;-2.20;99.90;;;;;;5078617;28;20044;-73
2022/04/03 01:30:49;;;;;;;3.33;1.73;;;-2.30;99.90;;;;;;5055020;28;20104;-73
2022/04/03 01:33:16;;;;;;;3.65;2.40;;;-2.30;99.90;;;;;;5041677;28;20076;-73
2022/04/03 01:35:42;;;;;;;3.85;2.17;;;-2.20;99.90;;;;;;5044360;28;20081;-74
2022/04/03 01:38:07;;;;;;;3.85;2.40;;;-2.30;99.90;;;;;;5061631;28;20051;-73
2022/04/03 01:40:35;;;;;;;3.80;1.90;;;-2.20;99.90;;;;;;5045199;28;20363;-74
2022/04/03 01:43:06;;;;;;;4.50;2.00;;;-1.90;99.90;;;;;;5055952;28;20045;-74
2022/04/03 01:45:36;;;;;;;6.50;2.45;;;-2.30;99.90;;;;;;5043599;28;20127;-74
2022/04/03 01:48:03;;;;;;;4.22;2.08;;;-2.30;99.90;;;;;;5057211;28;20060;-74
2022/04/03 01:50:29;;;;;;;4.13;2.05;;;-2.30;99.90;;;;;;5049772;28;20139;-74
2022/04/03 01:52:54;;;;;;;3.53;2.15;;;-2.40;99.90;;;;;;5056353;28;20479;-74
2022/04/03 01:55:20;;;;;;;3.85;2.38;;;-2.40;99.90;;;;;;5060857;28;20056;-74
2022/04/03 01:57:46;;;;;;;2.83;1.73;;;-2.40;99.90;;;;;;5077207;28;20045;-74
2022/04/03 02:00:12;;;;;;;4.60;1.90;;;-2.40;99.90;;;;;;5043546;28;20045;-74
2022/04/03 02:02:39;;;;;;;7.07;1.88;;;-2.50;99.90;;;;;;5061212;28;20045;-74
2022/04/03 02:05:06;;;;;;;4.82;2.10;;;-2.50;99.90;;;;;;5043507;28;20049;-74
2022/04/03 02:07:33;;;;;;;3.13;1.70;;;-2.50;99.90;;;;;;5044645;28;20044;-75
2022/04/03 02:10:00;;;;;;;3.80;2.10;;;-2.40;99.90;;;;;;5060456;28;20048;-75
2022/04/03 02:12:27;;;;;;;2.97;1.92;;;-2.40;99.90;;;;;;5060511;28;20536;-74
2022/04/03 02:14:52;;;;;;;4.22;2.20;;;-2.50;99.90;;;;;;5044209;28;20059;-75
2022/04/03 02:17:18;;;;;;;4.03;1.83;;;-1.10;99.90;;;;;;5040242;28;20041;-75
2022/04/03 02:19:44;;;;;;;2.83;2.00;;;-2.30;99.90;;;;;;5060507;28;20092;-74
2022/04/03 02:22:10;;;;;;;4.95;2.40;;;-2.30;99.90;;;;;;5076678;28;20056;-75
2022/04/03 02:24:36;;;;;;;3.90;2.60;;;-2.20;99.90;;;;;;5060167;28;20067;-75
2022/04/03 02:27:02;;;;;;;3.80;2.13;;;-2.10;99.90;;;;;;5065564;28;20045;-75
2022/04/03 02:29:27;;;;;;;3.90;1.92;;;-2.10;99.90;;;;;;5050311;28;20044;-75
2022/04/03 02:31:53;;;;;;;4.15;2.38;;;-2.10;99.90;;;;;;5060014;28;20071;-75
2022/04/03 02:34:19;;;;;;;3.42;2.30;;;-2.10;99.90;;;;;;5060151;28;20060;-76
2022/04/03 02:36:45;;;;;;;4.70;2.30;;;-1.30;99.90;;;;;;5060539;28;20048;-75
2022/04/03 02:39:14;;;;;;;4.50;2.00;;;-2.00;99.90;;;;;;5059766;28;20039;-76
2022/04/03 02:41:40;;;;;;;3.63;2.00;;;-2.50;99.90;;;;;;5043847;28;20057;-75
2022/04/03 02:44:06;;;;;;;5.53;2.25;;;-2.00;99.90;;;;;;5072103;28;20045;-76
2022/04/03 02:46:32;;;;;;;3.35;2.05;;;-2.00;99.90;;;;;;5043657;28;20084;-76
2022/04/03 02:48:58;;;;;;;4.95;2.30;;;-1.90;99.90;;;;;;5058848;28;20064;-76
2022/04/03 02:51:23;;;;;;;4.65;2.20;;;-0.20;99.90;;;;;;5078225;28;20048;-76
2022/04/03 02:53:49;;;;;;;3.85;2.20;;;-1.80;99.90;;;;;;5060644;28;20075;-76
2022/04/03 02:56:15;;;;;;;3.15;2.20;;;-1.80;99.90;;;;;;5059361;28;20051;-76
2022/04/03 02:58:41;;;;;;;3.20;2.05;;;-1.80;99.90;;;;;;5060384;28;20098;-75
2022/04/03 03:01:07;;;;;;;5.80;2.30;;;-1.90;99.90;;;;;;5076119;28;20050;-75
2022/04/03 03:03:33;;;;;;;3.80;2.30;;;-1.90;99.90;;;;;;5077096;28;20040;-75
2022/04/03 03:05:59;;;;;;;4.55;2.60;;;-1.90;99.90;;;;;;5055067;28;20106;-75
2022/04/03 03:08:25;;;;;;;4.40;2.47;;;-1.90;99.90;;;;;;5090107;28;20068;-76
2022/04/03 03:10:51;;;;;;;4.60;2.08;;;-1.90;99.90;;;;;;5055055;28;20539;-76
2022/04/03 03:13:16;;;;;;;2.95;2.15;;;-1.90;99.90;;;;;;5056024;28;20218;-76
2022/04/03 03:15:42;;;;;;;3.35;2.08;;;-1.90;99.90;;;;;;5069948;28;20047;-76
2022/04/03 03:18:08;;;;;;;3.50;2.00;;;-1.90;99.90;;;;;;5055836;28;20053;-76
2022/04/03 03:20:34;;;;;;;6.38;2.97;;;-1.90;99.90;;;;;;5041232;28;20076;-77
2022/04/03 03:23:00;;;;;;;6.20;2.40;;;-1.80;99.90;;;;;;5055822;28;20109;-77
2022/04/03 03:25:29;;;;;;;3.75;2.30;;;-1.80;99.90;;;;;;5050539;28;20040;-76
2022/04/03 03:27:55;;;;;;;4.95;2.60;;;-1.70;99.90;;;;;;5027952;28;20041;-76
2022/04/03 03:30:21;;;;;;;2.63;1.95;;;-1.50;99.90;;;;;;5047822;28;20044;-76
2022/04/03 03:32:47;;;;;;;5.45;2.38;;;-1.40;99.90;;;;;;5045507;28;20060;-76
2022/04/03 03:35:13;;;;;;;3.97;2.42;;;-1.30;99.90;;;;;;5031739;28;20045;-76
2022/04/03 03:37:39;;;;;;;4.35;2.25;;;-1.20;99.90;;;;;;5066818;28;20032;-76
2022/04/03 03:40:06;;;;;;;4.43;2.40;;;-1.10;99.90;;;;;;5080018;28;20051;-77
2022/04/03 03:42:33;;;;;;;4.30;2.40;;;-1.00;99.90;;;;;;5077667;28;20109;-76
2022/04/03 03:44:59;;;;;;;4.05;2.33;;;-0.90;99.90;;;;;;5059724;28;20053;-76
2022/04/03 03:47:26;;;;;;;6.20;2.30;;;-0.90;99.90;;;;;;5062648;28;20613;-77
2022/04/03 03:49:52;;;;;;;5.63;2.33;;;-0.80;99.90;;;;;;5078335;28;20059;-77
2022/04/03 03:52:18;;;;;;;4.05;2.33;;;-0.80;99.90;;;;;;5062936;28;20048;-76
2022/04/03 03:54:45;;;;;;;5.30;2.08;;;-0.80;99.90;;;;;;5063693;28;20071;-76
2022/04/03 03:57:12;;;;;;;4.40;2.25;;;-0.70;99.90;;;;;;5079252;28;20426;-77
2022/04/03 03:59:37;;;;;;;4.28;2.50;;;-0.70;99.90;;;;;;5063204;28;20055;-77
2022/04/03 04:02:03;;;;;;;3.75;2.03;;;-0.70;99.90;;;;;;5065519;28;20048;-76
2022/04/03 04:04:29;;;;;;;5.03;2.72;;;-0.60;99.90;;;;;;5072569;28;20077;-76
2022/04/03 04:06:56;;;;;;;4.75;2.33;;;-0.60;99.90;;;;;;5080168;28;20535;-76
2022/04/03 04:09:21;;;;;;;3.58;2.30;;;-0.60;99.90;;;;;;5079446;28;20044;-75
2022/04/03 04:11:47;;;;;;;4.07;2.40;;;-0.60;99.90;;;;;;5062192;28;20045;-75
2022/04/03 04:14:14;;;;;;;3.60;2.38;;;-0.60;99.90;;;;;;5079575;28;20092;-75
2022/04/03 04:16:40;;;;;;;3.80;2.40;;;-0.50;99.90;;;;;;5064873;28;20076;-76
2022/04/03 04:19:06;;;;;;;5.25;2.42;;;-0.50;99.90;;;;;;5076064;28;20064;-76
2022/04/03 04:21:32;;;;;;;4.32;2.55;;;-0.60;99.90;;;;;;5078864;28;20044;-75
2022/04/03 04:23:58;;;;;;;5.80;2.67;;;-0.50;99.90;;;;;;5063323;28;20130;-75
2022/04/03 04:26:25;;;;;;;3.67;2.28;;;-0.50;99.90;;;;;;5077930;28;20037;-76
2022/04/03 04:28:51;;;;;;;3.22;2.17;;;-0.60;99.90;;;;;;5060495;28;20119;-75
2022/04/03 04:31:18;;;;;;;5.72;2.75;;;-0.60;99.90;;;;;;5062152;28;20495;-75
2022/04/03 04:33:44;;;;;;;4.15;2.50;;;-0.70;99.90;;;;;;5079946;28;20044;-76
2022/04/03 04:36:10;;;;;;;4.97;2.75;;;-0.40;99.90;;;;;;5061698;28;20049;-76
2022/04/03 04:38:36;;;;;;;5.30;2.80;;;-0.70;99.90;;;;;;5042386;28;20044;-76
2022/04/03 04:41:03;;;;;;;3.53;2.40;;;-0.20;99.90;;;;;;5055077;28;20078;-76
2022/04/03 04:43:28;;;;;;;4.95;2.72;;;-0.80;99.90;;;;;;5053352;28;20412;-76
2022/04/03 04:45:54;;;;;;;4.40;2.53;;;-0.70;99.90;;;;;;5093412;28;20057;-76
2022/04/03 04:48:20;;;;;;;5.97;3.17;;;-0.40;99.90;;;;;;5077192;28;20078;-76
2022/04/03 04:50:46;;;;;;;3.65;2.45;;;-0.40;99.90;;;;;;5062414;28;20048;-76
2022/04/03 04:53:11;;;;;;;4.90;2.65;;;-0.30;99.90;;;;;;5094569;28;20561;-76
2022/04/03 04:55:37;;;;;;;4.13;2.88;;;-0.30;99.90;;;;;;5036871;28;20101;-76
2022/04/03 04:58:03;;;;;;;5.20;3.00;;;-0.50;99.90;;;;;;5078772;28;20059;-76
2022/04/03 05:00:30;;;;;;;7.55;3.08;;;-0.40;99.90;;;;;;5061320;28;20072;-76
2022/04/03 05:02:56;;;;;;;5.53;3.05;;;-0.20;99.90;;;;;;5062342;28;20621;-76
2022/04/03 05:05:22;;;;;;;5.35;3.05;;;-0.30;99.90;;;;;;5078338;28;20052;-76
2022/04/03 05:07:51;;;;;;;5.25;3.22;;;0.00;99.90;;;;;;5052085;28;20045;-75
2022/04/03 05:10:18;;;;;;;6.40;3.15;;;-0.10;99.90;;;;;;5078495;28;20044;-75
2022/04/03 05:12:44;;;;;;;7.43;3.22;;;0.20;99.90;;;;;;5087720;28;20130;-75
2022/04/03 05:15:11;;;;;;;5.85;2.85;;;0.00;99.90;;;;;;5076207;28;20037;-74
2022/04/03 05:17:42;;;;;;;4.32;2.42;;;0.10;99.90;;;;;;5040873;28;20041;-75
2022/04/03 05:20:15;;;;;;;3.85;2.60;;;0.10;99.90;;;;;;5058560;28;20049;-75
2022/04/03 05:22:42;;;;;;;6.13;2.50;;;0.10;99.90;;;;;;5074966;28;20048;-75
2022/04/03 05:25:11;;;;;;;6.45;2.78;;;0.10;99.90;;;;;;5041729;28;20060;-75
2022/04/03 05:27:38;;;;;;;5.78;2.75;;;0.10;99.90;;;;;;5057417;28;20048;-75
2022/04/03 05:30:04;;;;;;;5.97;2.80;;;0.00;99.90;;;;;;5061273;28;20050;-75
2022/04/03 05:32:31;;;;;;;5.30;2.70;;;0.00;99.90;;;;;;5061967;28;20074;-74
2022/04/03 05:34:59;;;;;;;5.32;2.70;;;0.00;99.90;;;;;;5077371;28;20051;-74
2022/04/03 05:37:25;;;;;;;3.88;2.80;;;0.00;99.90;;;;;;5057095;28;20067;-75
2022/04/03 05:39:51;;;;;;;5.15;2.58;;;0.00;99.90;;;;;;5077847;28;20573;-75
2022/04/03 05:42:18;;;;;;;3.95;2.42;;;0.00;99.90;;;;;;5037026;28;20105;-75
2022/04/03 05:44:44;;;;;;;5.28;2.35;;;0.00;99.90;;;;;;5026830;28;20106;-75
2022/04/03 05:47:10;;;;;;;5.88;2.63;;;0.00;99.90;;;;;;5077622;28;20442;-75
2022/04/03 05:49:37;;;;;;;4.68;2.90;;;0.30;99.90;;;;;;5068750;28;20075;-75
2022/04/03 05:52:04;;;;;;;3.15;2.65;;;0.10;99.90;;;;;;5060744;28;20134;-75
2022/04/03 05:54:30;;;;;;;5.30;2.90;;;0.10;99.90;;;;;;5077683;28;20077;-75
2022/04/03 05:56:56;;;;;;;3.47;2.38;;;0.20;99.90;;;;;;5060773;28;20112;-76
2022/04/03 05:59:22;;;;;;;4.28;2.55;;;0.20;99.90;;;;;;5041546;28;20127;-76
2022/04/03 06:01:48;;;;;;;5.38;2.63;;;0.20;99.90;;;;;;5056654;28;20059;-76
2022/04/03 06:04:14;;;;;;;5.53;3.42;;;0.50;99.90;;;;;;5077590;28;20037;-76
2022/04/03 06:06:41;;;;;;;4.95;2.42;;;0.30;99.90;;;;;;5064374;28;20044;-76
2022/04/03 06:09:06;;;;;;;4.20;2.63;;;0.30;99.90;;;;;;5040878;28;20055;-76
2022/04/03 06:11:32;;;;;;;5.15;2.88;;;0.40;99.90;;;;;;5048156;28;20099;-76
2022/04/03 06:13:58;;;;;;;3.95;2.75;;;0.40;99.90;;;;;;5061415;28;20116;-75
2022/04/03 06:16:24;;;;;;;4.35;2.50;;;0.40;99.90;;;;;;5062474;28;20048;-77
2022/04/03 06:18:52;;;;;;;5.88;2.95;;;0.30;99.90;;;;;;5069688;28;20056;-76
2022/04/03 06:21:18;;;;;;;3.17;2.50;;;0.30;99.90;;;;;;5060221;28;20116;-75
2022/04/03 06:23:44;;;;;;;3.60;2.53;;;0.30;99.90;;;;;;5060656;28;20032;-75
2022/04/03 06:26:09;;;;;;;4.85;2.50;;;0.30;99.90;;;;;;5072773;28;20105;-75
2022/04/03 06:28:35;;;;;;;5.18;2.70;;;0.40;99.90;;;;;;5074558;28;20041;-76
2022/04/03 06:31:01;;;;;;;3.83;2.50;;;0.40;99.90;;;;;;5060260;28;20056;-75
2022/04/03 06:33:27;;;;;;;7.43;3.10;;;0.40;99.90;;;;;;5077382;28;20104;-74
2022/04/03 06:35:53;;;;;;;3.85;2.92;;;0.40;99.90;;;;;;5056871;28;20040;-74
2022/04/03 06:38:19;;;;;;;5.22;2.70;;;0.40;99.90;;;;;;5060484;28;20063;-74
2022/04/03 06:40:50;;;;;;;5.22;3.00;;;0.50;99.90;;;;;;5060130;28;20476;-75
2022/04/03 06:43:27;;;;;;;3.28;2.35;;;0.30;99.90;;;;;;5069331;28;20041;-74
2022/04/03 06:45:54;;;;;;;3.20;2.53;;;0.30;99.90;;;;;;5057020;28;20049;-76
2022/04/03 06:48:20;;;;;;;4.63;2.90;;;0.30;99.90;;;;;;5049851;28;20052;-75
2022/04/03 06:50:46;;;;;;;4.60;3.42;;;0.30;99.90;;;;;;5053982;28;20051;-75
2022/04/03 06:53:12;;;;;;;6.15;2.90;;;0.50;99.90;;;;;;5034366;28;20040;-75
2022/04/03 06:55:38;;;;;;;5.00;3.00;;;0.60;99.90;;;;;;5076635;28;20048;-74
2022/04/03 06:58:04;;;;;;;7.38;3.08;;;0.80;99.90;;;;;;5076609;28;20330;-75
2022/04/03 07:00:30;;;;;;;4.55;2.70;;;0.90;99.90;;;;;;5042705;28;20049;-75
2022/04/03 07:02:56;;;;;;;3.75;2.30;;;0.90;99.90;;;;;;5059687;28;20048;-75
2022/04/03 07:05:22;;;;;;;4.95;2.40;;;0.90;99.90;;;;;;5076128;28;20047;-75
2022/04/03 07:07:52;;;;;;;5.10;2.97;;;1.40;99.90;;;;;;5043561;28;20036;-74
2022/04/03 07:10:17;;;;;;;3.70;2.42;;;0.90;99.90;;;;;;5056785;28;20108;-74
2022/04/03 07:12:43;;;;;;;4.55;2.80;;;0.90;99.90;;;;;;5052605;28;20079;-75
2022/04/03 07:15:12;;;;;;;5.85;2.70;;;0.90;99.90;;;;;;5064370;28;20066;-73
2022/04/03 07:17:38;;;;;;;4.75;2.60;;;1.00;99.90;;;;;;5034173;28;20577;-74
2022/04/03 07:20:06;;;;;;;5.50;2.50;;;1.00;99.90;;;;;;5049363;28;20043;-74
2022/04/03 07:22:31;;;;;;;4.13;2.33;;;1.10;99.90;;;;;;5066459;28;20136;-74
2022/04/03 07:24:57;;;;;;;3.35;2.42;;;1.40;99.90;;;;;;5083465;28;20519;-74
2022/04/03 07:27:23;;;;;;;3.90;2.33;;;1.50;99.90;;;;;;5049323;28;20063;-74
2022/04/03 07:29:49;;;;;;;3.05;2.25;;;1.70;99.90;;;;;;5055122;28;20045;-74
2022/04/03 07:32:14;;;;;;;3.63;2.38;;;1.90;99.90;;;;;;5045841;28;20098;-74
2022/04/03 07:34:40;;;;;;;4.38;2.78;;;2.20;99.90;;;;;;5064643;28;20131;-74
2022/04/03 07:37:06;;;;;;;3.50;2.10;;;1.90;99.90;;;;;;5049268;28;20108;-74
2022/04/03 07:39:32;;;;;;;5.38;2.42;;;2.00;99.90;;;;;;5079354;28;20040;-74
2022/04/03 07:41:57;;;;;;;5.20;2.40;;;2.00;99.90;;;;;;5048022;28;20140;-74
2022/04/03 07:44:23;;;;;;;8.88;2.33;;;2.20;99.90;;;;;;5055710;28;20041;-74
2022/04/03 07:46:49;;;;;;;7.45;2.50;;;2.50;99.90;;;;;;5062258;28;20033;-74
2022/04/03 07:49:15;;;;;;;4.97;2.33;;;2.00;99.90;;;;;;5072934;28;20114;-74
2022/04/03 07:51:40;;;;;;;4.00;2.38;;;2.60;99.90;;;;;;5063404;28;20041;-75
2022/04/03 07:54:06;;;;;;;4.68;1.88;;;2.60;99.90;;;;;;5073930;28;20057;-74
2022/04/03 07:56:32;;;;;;;4.07;2.22;;;2.70;99.90;;;;;;5030175;28;20530;-74
2022/04/03 07:58:58;;;;;;;5.72;2.72;;;2.70;99.90;;;;;;5041448;28;20041;-74
2022/04/03 08:01:24;;;;;;;2.95;2.17;;;2.70;99.90;;;;;;5028313;28;20049;-74
2022/04/03 08:03:50;;;;;;;4.25;1.92;;;2.90;99.90;;;;;;5052649;28;20060;-73
2022/04/03 08:06:15;;;;;;;4.88;2.40;;;3.20;99.90;;;;;;5062295;28;20053;-74
2022/04/03 08:08:44;;;;;;;3.85;2.00;;;3.40;99.90;;;;;;5042420;28;20032;-74
2022/04/03 08:11:10;;;;;;;3.33;1.90;;;3.50;99.90;;;;;;5036483;28;20078;-74
2022/04/03 08:13:35;;;;;;;5.65;2.25;;;3.50;99.90;;;;;;5031495;28;20049;-73
2022/04/03 08:16:01;;;;;;;3.88;1.80;;;3.50;99.90;;;;;;5027151;28;20045;-74
2022/04/03 08:18:27;;;;;;;3.40;2.00;;;3.50;99.90;;;;;;5039043;28;20041;-74
2022/04/03 08:20:53;;;;;;;3.35;1.92;;;3.50;99.90;;;;;;5062851;28;20052;-74
2022/04/03 08:23:19;;;;;;;3.53;1.73;;;3.60;99.90;;;;;;5040686;28;20199;-73
2022/04/03 08:25:45;;;;;;;3.80;1.95;;;3.70;99.90;;;;;;5074918;28;20065;-74
2022/04/03 08:28:11;;;;;;;4.15;1.55;;;3.80;99.90;;;;;;5059356;28;20048;-73
2022/04/03 08:30:38;;;;;;;3.00;1.85;;;4.00;99.90;;;;;;5025574;28;20041;-73
2022/04/03 08:33:05;;;;;;;3.85;1.95;;;4.10;99.90;;;;;;5057969;28;20091;-73
2022/04/03 08:35:37;;;;;;;6.30;1.63;;;4.30;99.90;;;;;;5025870;28;20048;-73
2022/04/03 08:38:04;;;;;;;2.22;1.35;;;4.50;99.90;;;;;;5026338;28;20400;-73
2022/04/03 08:40:31;;;;;;;2.63;1.85;;;4.70;99.90;;;;;;5057890;28;20063;-73
2022/04/03 08:42:57;;;;;;;3.20;1.55;;;4.90;99.90;;;;;;5034056;28;20402;-73
2022/04/03 08:45:25;;;;;;;4.25;1.42;;;5.00;99.90;;;;;;5041118;28;20033;-73
2022/04/03 08:47:57;;;;;;;2.50;1.52;;;5.20;99.90;;;;;;5038022;28;20049;-73
2022/04/03 08:50:28;;;;;;;4.45;1.75;;;5.30;99.90;;;;;;5057199;28;20044;-73
2022/04/03 08:52:58;;;;;;;3.75;1.40;;;5.50;99.90;;;;;;5076072;28;20555;-73
2022/04/03 08:55:23;;;;;;;3.10;1.60;;;5.60;99.90;;;;;;5046577;28;20044;-73
2022/04/03 08:57:49;;;;;;;2.55;1.15;;;5.70;99.90;;;;;;5061698;28;20044;-73
2022/04/03 09:00:15;;;;;;;3.15;1.30;;;5.80;99.90;;;;;;5046831;28;20052;-73
2022/04/03 09:02:43;;;;;;;2.70;1.15;;;5.80;99.90;;;;;;5056870;28;20044;-74
2022/04/03 09:05:12;;;;;;;3.00;1.50;;;5.90;99.90;;;;;;5060859;28;20052;-73
2022/04/03 09:07:38;;;;;;;3.42;1.27;;;6.00;99.90;;;;;;5033896;28;20048;-73
2022/04/03 09:10:13;;;;;;;2.22;1.55;;;6.10;99.90;;;;;;5048659;28;20051;-73
2022/04/03 09:12:50;;;;;;;2.92;1.38;;;6.20;99.90;;;;;;5058671;28;20056;-73
2022/04/03 09:15:18;;;;;;;3.20;1.27;;;6.40;99.90;;;;;;5050329;28;20052;-73
2022/04/03 09:17:46;;;;;;;3.58;1.30;;;6.60;99.90;;;;;;5045996;28;20071;-73
2022/04/03 09:20:14;;;;;;;3.08;1.10;;;6.80;99.90;;;;;;5051764;28;20044;-73
2022/04/03 09:22:50;;;;;;;1.55;0.90;;;6.90;99.90;;;;;;5036809;28;20139;-73
2022/04/03 09:25:22;;;;;;;3.28;1.00;;;6.90;99.90;;;;;;5067811;28;20056;-73
2022/04/03 09:27:50;;;;;;;1.63;0.90;;;6.90;99.90;;;;;;5021928;28;20075;-72
2022/04/03 09:30:20;;;;;;;3.65;0.90;;;7.00;99.90;;;;;;5062341;28;20048;-73
2022/04/03 09:32:51;;;;;;;5.03;1.80;;;7.10;99.90;;;;;;5048409;28;20049;-73
2022/04/03 09:35:20;;;;;;;2.05;1.10;;;7.00;99.90;;;;;;5073288;28;20049;-72
2022/04/03 09:38:12;;;;;;;1.98;0.93;;;6.80;99.90;;;;;;5057857;28;20045;-72
2022/04/03 09:40:41;;;;;;;3.00;1.17;;;6.90;99.90;;;;;;5074295;28;20041;-72
2022/04/03 09:43:22;;;;;;;5.72;1.25;;;7.20;99.90;;;;;;5040589;28;20075;-72
2022/04/03 09:45:53;;;;;;;1.75;0.80;;;7.60;99.90;;;;;;5057523;28;20049;-72
2022/04/03 09:48:31;;;;;;;1.75;0.80;;;7.60;99.90;;;;;;5053735;28;20048;-73
2022/04/03 09:50:59;;;;;;;6.47;1.92;;;7.20;99.90;;;;;;5061306;28;20040;-72
2022/04/03 09:53:26;;;;;;;2.33;0.90;;;7.00;99.90;;;;;;5060811;28;20129;-73
2022/04/03 09:55:52;;;;;;;1.80;1.00;;;6.70;99.90;;;;;;5079785;28;20083;-72
2022/04/03 09:58:18;;;;;;;2.20;0.90;;;6.60;99.90;;;;;;5041663;28;20052;-72
2022/04/03 10:00:44;;;;;;;1.88;1.00;;;6.80;99.90;;;;;;5046625;28;20041;-72
2022/04/03 10:03:12;;;;;;;2.75;1.00;;;7.20;99.90;;;;;;5021576;28;20053;-73
2022/04/03 10:05:38;;;;;;;1.40;0.80;;;7.50;99.90;;;;;;5056808;28;20037;-72
2022/04/03 10:08:05;;;;;;;1.42;0.90;;;7.90;99.90;;;;;;5049529;28;20048;-73
2022/04/03 10:10:36;;;;;;;3.03;1.00;;;8.20;99.90;;;;;;5045328;28;20085;-73
2022/04/03 10:13:03;;;;;;;1.67;0.63;;;8.20;99.90;;;;;;5070037;28;20117;-72
2022/04/03 10:15:29;;;;;;;2.00;0.60;;;8.00;99.90;;;;;;5070282;28;20065;-72
2022/04/03 10:17:56;;;;;;;1.70;0.90;;;8.00;99.90;;;;;;5052507;28;20049;-72
2022/04/03 10:20:28;;;;;;;1.33;0.90;;;8.10;99.90;;;;;;5034038;28;20078;-73
2022/04/03 10:23:11;;;;;;;2.50;0.82;;;8.00;99.90;;;;;;5060132;28;20055;-73
2022/04/03 10:25:47;;;;;;;1.58;0.80;;;7.90;99.90;;;;;;5073972;28;20052;-74
2022/04/03 10:28:18;;;;;;;1.30;0.88;;;7.50;99.90;;;;;;5056620;28;20053;-73
2022/04/03 10:30:44;;;;;;;1.55;0.80;;;7.40;99.90;;;;;;5073944;28;20048;-72
2022/04/03 10:33:21;;;;;;;1.42;0.60;;;7.30;99.90;;;;;;5033775;28;20053;-72
2022/04/03 10:35:48;;;;;;;1.40;0.60;;;7.20;99.90;;;;;;5029777;28;20139;-73
2022/04/03 10:38:14;;;;;;;3.92;0.90;;;7.20;99.90;;;;;;5040835;28;20044;-72
2022/04/03 10:40:55;;;;;;;1.83;0.80;;;7.10;99.90;;;;;;5051778;28;20376;-72
2022/04/03 10:43:27;;;;;;;1.67;0.70;;;7.20;99.90;;;;;;5061171;28;20041;-72
2022/04/03 10:45:53;;;;;;;1.92;0.70;;;7.70;99.90;;;;;;5036243;28;20045;-72
2022/04/03 10:48:26;;;;;;;1.05;0.60;;;8.20;99.90;;;;;;5053185;28;20604;-73
2022/04/03 10:50:56;;;;;;;2.38;0.70;;;8.70;99.90;;;;;;5037442;28;20060;-72
2022/04/03 10:53:26;;;;;;;1.08;0.60;;;8.90;99.90;;;;;;5036514;28;20072;-72
2022/04/03 10:55:56;;;;;;;2.63;0.90;;;8.80;99.90;;;;;;5053074;28;20052;-73
2022/04/03 10:58:22;;;;;;;1.52;0.77;;;8.70;99.90;;;;;;5020692;28;20037;-71
2022/04/03 11:00:52;;;;;;;7.90;1.48;;;8.40;99.90;;;;;;5019879;28;20068;-71
2022/04/03 11:03:17;;;;;;;3.08;1.00;;;8.00;99.90;;;;;;5020308;28;20046;-72
2022/04/03 11:05:46;;;;;;;3.30;1.13;;;7.70;99.90;;;;;;5052927;28;20045;-72
2022/04/03 11:08:12;;;;;;;2.75;0.90;;;7.50;99.90;;;;;;5062881;28;20046;-73
2022/04/03 11:10:57;;;;;;;2.20;0.80;;;7.40;99.90;;;;;;5060122;28;20127;-73
2022/04/03 11:13:38;;;;;;;3.63;0.95;;;7.30;99.90;;;;;;5059264;28;20076;-73
2022/04/03 11:16:05;;;;;;;2.38;0.93;;;7.30;99.90;;;;;;5050221;28;20053;-73
2022/04/03 11:18:39;;;;;;;3.42;0.98;;;7.30;99.90;;;;;;5039396;28;20090;-73
2022/04/03 11:21:25;;;;;;;2.13;0.80;;;7.40;99.90;;;;;;5040259;28;20055;-73
2022/04/03 11:24:10;;;;;;;2.67;0.80;;;7.40;99.90;;;;;;5040454;28;20091;-72
2022/04/03 11:26:38;;;;;;;3.42;0.88;;;7.40;99.90;;;;;;5056309;28;20056;-74
2022/04/03 11:29:07;;;;;;;1.73;0.90;;;7.30;99.90;;;;;;5039945;28;20124;-73
2022/04/03 11:31:34;;;;;;;2.47;0.90;;;7.20;99.90;;;;;;5039577;28;20041;-73
2022/04/03 11:34:01;;;;;;;5.18;0.90;;;7.20;99.90;;;;;;5023806;28;20079;-74
2022/04/03 11:36:29;;;;;;;3.10;0.98;;;7.10;99.90;;;;;;5023859;28;20079;-74
2022/04/03 11:38:56;;;;;;;1.38;0.75;;;7.10;99.90;;;;;;5039361;28;20532;-74
2022/04/03 11:41:28;;;;;;;1.48;0.60;;;7.00;99.90;;;;;;5040040;28;20090;-74
2022/04/03 11:44:06;;;;;;;2.42;0.77;;;7.00;99.90;;;;;;5039785;28;20067;-74
2022/04/03 11:46:38;;;;;;;3.83;0.80;;;7.20;99.90;;;;;;5039935;28;20057;-74
2022/04/03 11:49:14;;;;;;;1.45;0.75;;;7.50;99.90;;;;;;5039622;28;20467;-73
2022/04/03 11:51:42;;;;;;;2.10;0.70;;;7.80;99.90;;;;;;5039041;28;20061;-74
2022/04/03 11:54:07;;;;;;;2.83;1.02;;;8.10;99.90;;;;;;5040067;28;20040;-74
2022/04/03 11:56:38;;;;;;;3.67;0.82;;;8.50;99.90;;;;;;5056310;28;20199;-74
2022/04/03 11:59:05;;;;;;;1.98;0.77;;;8.90;99.90;;;;;;5043913;28;20055;-74
2022/04/03 12:01:31;;;;;;;0.90;0.60;;;9.20;99.90;;;;;;5043142;28;20053;-74
2022/04/03 12:04:12;;;;;;;1.35;0.70;;;9.30;99.90;;;;;;5059893;28;20048;-74
2022/04/03 12:06:40;;;;;;;2.15;0.90;;;9.10;99.90;;;;;;5060621;28;20412;-73
2022/04/03 12:09:26;;;;;;;2.35;0.60;;;8.90;99.90;;;;;;5042789;28;20049;-74
2022/04/03 12:11:53;;;;;;;2.53;1.02;;;8.60;99.90;;;;;;5043487;28;20516;-73
2022/04/03 12:14:30;;;;;;;1.83;0.68;;;8.40;99.90;;;;;;5059475;28;20041;-74
2022/04/03 12:17:08;;;;;;;2.40;0.70;;;8.30;99.90;;;;;;5042935;28;20056;-74
2022/04/03 12:19:46;;;;;;;2.53;0.82;;;8.20;99.90;;;;;;5038671;28;20074;-72
2022/04/03 12:22:18;;;;;;;2.97;0.70;;;8.10;99.90;;;;;;5055798;28;20371;-74
2022/04/03 12:24:45;;;;;;;1.95;0.65;;;7.90;99.90;;;;;;5050448;28;20072;-74
2022/04/03 12:27:14;;;;;;;2.72;0.93;;;7.80;99.90;;;;;;5042728;28;20052;-74
2022/04/03 12:29:45;;;;;;;2.30;1.05;;;7.70;99.90;;;;;;5059211;28;20052;-75
2022/04/03 12:32:15;;;;;;;2.22;0.85;;;7.60;99.90;;;;;;5043026;28;20029;-74
2022/04/03 12:34:43;;;;;;;2.53;0.93;;;7.40;99.90;;;;;;5042023;28;20138;-73
2022/04/03 12:37:11;;;;;;;1.98;0.90;;;7.30;99.90;;;;;;5059045;28;20095;-73
2022/04/03 12:40:00;;;;;;;2.17;0.70;;;7.30;99.90;;;;;;5042107;28;20045;-73
2022/04/03 12:42:26;;;;;;;3.83;1.90;;;7.20;99.90;;;;;;5060768;28;20059;-74
2022/04/03 12:45:00;;;;;;;2.42;1.02;;;7.20;99.90;;;;;;5058653;28;20040;-73
2022/04/03 12:47:37;;;;;;;3.38;1.00;;;7.30;99.90;;;;;;5078435;28;20048;-73
2022/04/03 12:50:06;;;;;;;3.20;1.13;;;7.40;99.90;;;;;;5061593;28;20056;-74
2022/04/03 12:52:45;;;;;;;2.65;0.80;;;7.50;99.90;;;;;;5062342;28;20136;-74
2022/04/03 13:00:53;;;;;;;1.50;0.82;;;7.90;99.90;;;;;;5058778;28;20269;-73